Terminal Aerodrome Forecast
Issued by NWS

Home | Current Version | Previous Version | Graphics & Text | Print | Product List | Glossary On
Versions: 1 2 3 4 5 6 7 8 9 10 11 12 13 14 15 16 17 18 19 20 21 22 23 24 25 26 27 28 29 30 31 32 33 34 35 36 37 38 39 40 41 42
000
FTUS43 KGRB 172023 AAA
TAFATW
TAF AMD
KATW 172023Z 1720/1818 17011G17KT P6SM SCT015 OVC030
      TEMPO 1720/1724 5SM -RA BR BKN015
     FM180000 18009KT 4SM -RA BR OVC008
     FM180300 24004KT 2SM -RA BR OVC004
     FM180600 33004KT 1 1/2SM -RA BR OVC004
     FM181000 35010KT 4SM -RA BR OVC008
     FM181400 35015G22KT P6SM OVC018=

USA.gov is the U.S. government's official web portal to all federal, state and local government web resources and services.